Time;durP1;ratioP1;P1;durP2;ratioP2;P2;SDS_P1;SDS_P2;PMS_P1;PMS_P2;Temp;Humidity;BMP_temperature;BMP_pressure;BME280_temperature;BME280_humidity;BME280_pressure;Samples;Min_cycle;Max_cycle;Signal;HPM_P1;HPM_P2
2022/04/15 00:00:39;;;;;;;27.67;22.63;;;;;;;12.20;95.41;101048.13;4948882;29;20044;-75
2022/04/15 00:03:06;;;;;;;29.05;23.50;;;;;;;12.16;95.88;101059.63;4952467;29;20046;-75
2022/04/15 00:05:35;;;;;;;30.33;24.17;;;;;;;12.14;95.98;101083.41;4948905;29;20047;-74
2022/04/15 00:08:02;;;;;;;43.33;27.05;;;;;;;12.07;96.19;101079.03;4951119;29;20059;-74
2022/04/15 00:10:28;;;;;;;35.17;26.27;;;;;;;12.02;96.84;101080.81;4935475;29;20426;-75
2022/04/15 00:12:57;;;;;;;32.78;25.05;;;;;;;11.96;97.85;101079.06;4948353;29;20035;-74
2022/04/15 00:15:23;;;;;;;28.10;22.25;;;;;;;11.93;98.04;101075.56;4949275;29;20046;-75
2022/04/15 00:17:49;;;;;;;35.80;26.45;;;;;;;11.92;98.23;101074.69;4935377;29;20490;-74
2022/04/15 00:20:14;;;;;;;31.92;23.25;;;;;;;11.94;97.71;101077.31;4949418;29;20050;-74
2022/04/15 00:22:40;;;;;;;35.88;26.20;;;;;;;11.96;98.31;101079.06;4951987;29;20560;-74
2022/04/15 00:25:07;;;;;;;37.33;25.55;;;;;;;11.93;97.73;101070.28;4952638;29;20435;-74
2022/04/15 00:27:34;;;;;;;45.05;29.77;;;;;;;11.93;98.06;101065.84;4950275;29;20043;-74
2022/04/15 00:29:59;;;;;;;44.38;29.48;;;;;;;11.97;98.06;101072.00;4948820;29;20055;-74
2022/04/15 00:32:26;;;;;;;38.17;27.38;;;;;;;11.97;97.84;101072.00;4950936;28;20063;-74
2022/04/15 00:34:52;;;;;;;39.92;27.63;;;;;;;11.96;98.14;101070.25;4949481;29;20051;-74
2022/04/15 00:37:18;;;;;;;39.33;26.35;;;;;;;11.88;98.25;101072.06;4950346;29;20042;-74
2022/04/15 00:39:45;;;;;;;45.60;30.52;;;;;;;11.87;98.49;101067.63;4952473;29;20039;-74
2022/04/15 00:42:11;;;;;;;38.22;27.27;;;;;;;11.85;98.97;101071.13;4951861;28;20043;-74
2022/04/15 00:44:37;;;;;;;43.33;29.60;;;;;;;11.87;98.70;101071.19;4951126;29;20039;-74
2022/04/15 00:47:27;;;;;;;41.90;29.48;;;;;;;11.94;98.12;101056.16;4953364;29;20173;-74
2022/04/15 00:49:52;;;;;;;43.55;31.00;;;;;;;11.96;97.99;101064.97;4954988;29;20074;-74
2022/04/15 00:52:21;;;;;;;40.67;27.80;;;;;;;11.97;97.67;101067.63;4955318;28;20079;-74
2022/04/15 00:54:51;;;;;;;37.95;27.65;;;;;;;12.01;97.29;101071.13;4955848;29;20042;-74
2022/04/15 00:57:22;;;;;;;41.03;28.10;;;;;;;11.97;97.52;101072.91;4955520;29;20073;-74
2022/04/15 00:59:51;;;;;;;38.03;26.60;;;;;;;11.95;97.17;101073.81;4954509;29;20032;-74
2022/04/15 01:02:17;;;;;;;44.95;29.83;;;;;;;11.91;97.63;101077.31;4954931;28;20094;-74
2022/04/15 01:04:43;;;;;;;43.13;29.77;;;;;;;11.79;98.47;101079.09;4955604;29;20089;-74
2022/04/15 01:07:12;;;;;;;49.03;34.20;;;;;;;11.79;99.09;101076.44;4953275;29;20118;-74
2022/04/15 01:09:42;;;;;;;47.95;31.45;;;;;;;11.78;99.69;101069.38;4954281;29;20042;-74
2022/04/15 01:12:09;;;;;;;52.58;34.47;;;;;;;11.82;99.10;101078.22;4954953;28;20043;-74
2022/04/15 01:14:36;;;;;;;56.83;35.10;;;;;;;11.84;99.11;101073.78;4952745;29;20039;-74
2022/04/15 01:17:02;;;;;;;50.33;32.58;;;;;;;11.79;98.99;101073.81;4951685;29;20039;-74
2022/04/15 01:19:27;;;;;;;59.70;36.05;;;;;;;11.81;98.53;101069.38;4955409;29;20046;-74
2022/04/15 01:21:55;;;;;;;47.35;32.28;;;;;;;11.80;98.99;101077.31;4944101;29;20070;-74
2022/04/15 01:24:20;;;;;;;58.03;36.00;;;;;;;11.77;98.80;101075.56;4953384;28;20106;-74
2022/04/15 01:26:46;;;;;;;51.92;31.73;;;;;;;11.75;98.79;101068.53;4953791;29;20518;-74
2022/04/15 01:29:11;;;;;;;54.08;34.83;;;;;;;11.65;98.61;101070.28;4948335;29;20502;-74
2022/04/15 01:31:36;;;;;;;59.03;35.03;;;;;;;11.53;98.58;101076.50;4954898;29;20035;-74
2022/04/15 01:34:02;;;;;;;55.60;33.85;;;;;;;11.36;98.83;101079.16;4951519;28;20062;-74
2022/04/15 01:36:27;;;;;;;57.47;34.83;;;;;;;11.20;99.98;101077.41;4937876;29;20031;-74
2022/04/15 01:38:57;;;;;;;67.63;40.92;;;;;;;11.14;100.00;101066.84;4954752;29;20441;-74
2022/04/15 01:41:22;;;;;;;56.80;35.22;;;;;;;11.04;100.00;101070.34;4954500;29;20042;-74
2022/04/15 01:43:48;;;;;;;66.43;38.17;;;;;;;10.98;100.00;101076.50;4954703;28;20514;-74
2022/04/15 01:46:13;;;;;;;79.75;39.70;;;;;;;10.91;100.00;101070.34;4954838;29;20126;-74
2022/04/15 01:48:39;;;;;;;63.33;37.63;;;;;;;10.85;100.00;101070.34;4952393;29;20042;-75
2022/04/15 01:51:04;;;;;;;73.88;38.97;;;;;;;10.81;100.00;101076.47;4954504;29;20035;-74
2022/04/15 01:53:29;;;;;;;68.65;38.53;;;;;;;10.75;100.00;101073.84;4951465;29;20157;-74
2022/04/15 01:55:55;;;;;;;80.32;42.42;;;;;;;10.71;100.00;101077.34;4950901;28;20038;-74
2022/04/15 01:58:20;;;;;;;67.65;37.80;;;;;;;10.64;100.00;101071.19;4954128;29;20050;-75
2022/04/15 02:00:45;;;;;;;60.53;34.97;;;;;;;10.57;100.00;101073.81;4937200;29;20043;-74
2022/04/15 02:03:11;;;;;;;77.05;40.20;;;;;;;10.53;100.00;101072.88;4953344;28;20062;-74
2022/04/15 02:05:36;;;;;;;80.75;40.70;;;;;;;10.50;100.00;101068.47;4954431;29;20035;-74
2022/04/15 02:08:01;;;;;;;68.57;36.65;;;;;;;10.45;100.00;101075.53;4950512;29;20061;-74
2022/04/15 02:10:27;;;;;;;64.00;36.13;;;;;;;10.41;100.00;101079.03;4954435;29;20394;-74
2022/04/15 02:12:52;;;;;;;60.10;34.13;;;;;;;10.39;100.00;101082.53;4950642;29;20093;-74
2022/04/15 02:15:17;;;;;;;77.15;38.83;;;;;;;10.37;100.00;101077.25;4954281;29;20146;-75
2022/04/15 02:17:43;;;;;;;71.30;38.70;;;;;;;10.38;100.00;101084.31;4953016;29;20057;-74
2022/04/15 02:20:11;;;;;;;57.28;36.10;;;;;;;10.38;100.00;101076.38;4936840;29;20047;-74
2022/04/15 02:22:37;;;;;;;66.22;38.42;;;;;;;10.39;100.00;101075.50;4951225;29;20054;-74
2022/04/15 02:25:03;;;;;;;61.97;35.80;;;;;;;10.40;100.00;101077.28;4951373;29;20129;-74
2022/04/15 02:27:28;;;;;;;62.50;35.20;;;;;;;10.39;100.00;101074.63;4936795;29;20110;-74
2022/04/15 02:29:53;;;;;;;54.55;34.28;;;;;;;10.39;100.00;101075.50;4954019;29;20043;-74
2022/04/15 02:32:18;;;;;;;53.70;32.30;;;;;;;10.42;100.00;101069.34;4951307;29;20063;-74
2022/04/15 02:34:44;;;;;;;60.13;34.55;;;;;;;10.46;100.00;101066.72;4953689;29;20114;-75
2022/04/15 02:37:09;;;;;;;55.22;33.50;;;;;;;10.48;100.00;101064.13;4951695;29;20170;-75
2022/04/15 02:39:35;;;;;;;66.10;37.33;;;;;;;10.57;100.00;101068.53;4949945;29;20063;-74
2022/04/15 02:42:00;;;;;;;74.72;40.40;;;;;;;10.60;100.00;101068.53;4952208;29;20058;-75
2022/04/15 02:44:26;;;;;;;62.38;37.45;;;;;;;10.66;100.00;101068.53;4953846;28;20035;-74
2022/04/15 02:46:53;;;;;;;73.47;41.78;;;;;;;10.75;100.00;101068.56;4950401;29;20043;-74
2022/04/15 02:49:19;;;;;;;71.70;37.38;;;;;;;10.79;100.00;101062.38;4949952;29;20410;-74
2022/04/15 02:51:44;;;;;;;60.03;35.08;;;;;;;10.81;100.00;101068.56;4950364;29;20027;-74
2022/04/15 02:54:09;;;;;;;53.13;33.47;;;;;;;10.85;100.00;101062.41;4953318;29;20070;-74
2022/04/15 02:56:35;;;;;;;55.85;33.20;;;;;;;10.84;100.00;101068.56;4952474;29;20050;-74
2022/04/15 02:59:00;;;;;;;49.67;32.28;;;;;;;10.84;100.00;101063.28;4953448;29;20043;-74
2022/04/15 03:01:25;;;;;;;47.80;29.10;;;;;;;10.84;100.00;101068.56;4953032;29;20042;-74
2022/04/15 03:03:50;;;;;;;41.13;29.10;;;;;;;10.85;100.00;101075.63;4950912;28;20047;-74
2022/04/15 03:06:16;;;;;;;42.47;29.33;;;;;;;10.87;100.00;101073.88;4953301;29;20054;-74
2022/04/15 03:08:42;;;;;;;39.83;27.10;;;;;;;10.90;100.00;101063.31;4952773;28;20039;-74
2022/04/15 03:11:07;;;;;;;52.78;30.88;;;;;;;10.88;100.00;101074.75;4948832;29;20043;-74
2022/04/15 03:13:34;;;;;;;47.13;30.77;;;;;;;10.81;100.00;101079.13;4949733;29;20097;-74
2022/04/15 03:16:00;;;;;;;48.42;31.55;;;;;;;10.82;100.00;101074.72;4953584;28;20058;-74
2022/04/15 03:18:25;;;;;;;41.38;27.27;;;;;;;10.81;100.00;101068.56;4952402;29;20130;-74
2022/04/15 03:20:50;;;;;;;42.42;27.67;;;;;;;10.81;100.00;101070.31;4951845;29;20186;-74
2022/04/15 03:23:19;;;;;;;42.55;28.90;;;;;;;10.80;100.00;101071.22;4952453;28;20039;-74
2022/04/15 03:25:46;;;;;;;46.83;30.33;;;;;;;10.79;100.00;101083.50;4951478;29;20409;-74
2022/04/15 03:28:12;;;;;;;48.28;29.48;;;;;;;10.74;100.00;101083.53;4949291;29;20533;-74
2022/04/15 03:30:37;;;;;;;55.40;34.53;;;;;;;10.77;100.00;101082.66;4952951;29;20031;-74
2022/04/15 03:33:03;;;;;;;50.33;32.85;;;;;;;10.71;100.00;101085.25;4952562;29;20047;-74
2022/04/15 03:35:28;;;;;;;48.15;30.95;;;;;;;10.68;100.00;101083.50;4952384;29;20042;-75
2022/04/15 03:37:54;;;;;;;43.58;30.20;;;;;;;10.64;100.00;101083.50;4952919;29;20050;-74
2022/04/15 03:40:20;;;;;;;44.65;31.08;;;;;;;10.64;100.00;101088.78;4952035;29;20042;-74
2022/04/15 03:42:47;;;;;;;39.15;27.00;;;;;;;10.65;100.00;101087.91;4952504;28;20031;-74
2022/04/15 03:45:14;;;;;;;48.55;32.05;;;;;;;10.65;100.00;101093.19;4952861;29;20406;-74
2022/04/15 03:47:42;;;;;;;41.75;28.80;;;;;;;10.65;100.00;101087.91;4953017;29;20143;-75
2022/04/15 03:50:12;;;;;;;43.08;28.63;;;;;;;10.66;100.00;101084.38;4952540;29;20039;-75
2022/04/15 03:52:42;;;;;;;44.55;30.67;;;;;;;10.72;100.00;101094.97;4949960;29;20040;-74
2022/04/15 03:55:11;;;;;;;42.75;29.98;;;;;;;10.82;100.00;101087.91;4953017;29;20126;-74
2022/04/15 03:57:37;;;;;;;37.33;28.45;;;;;;;10.81;100.00;101094.97;4952919;29;20117;-74
2022/04/15 04:00:08;;;;;;;43.17;31.23;;;;;;;10.83;100.00;101097.63;4951416;29;20103;-75
2022/04/15 04:02:34;;;;;;;40.53;29.45;;;;;;;10.87;100.00;101099.38;4950626;28;20036;-74
2022/04/15 04:04:59;;;;;;;47.42;34.40;;;;;;;10.91;100.00;101099.38;4952499;29;20102;-75
2022/04/15 04:07:24;;;;;;;45.85;33.65;;;;;;;10.94;100.00;101090.59;4952513;29;20062;-74
2022/04/15 04:09:50;;;;;;;48.92;35.28;;;;;;;10.95;100.00;101097.63;4951413;29;20043;-74
2022/04/15 04:12:15;;;;;;;39.40;30.40;;;;;;;10.94;100.00;101102.03;4951912;28;20032;-74
2022/04/15 04:14:40;;;;;;;49.80;36.80;;;;;;;10.94;100.00;101102.03;4952215;29;20047;-75
2022/04/15 04:17:06;;;;;;;38.22;28.63;;;;;;;11.01;100.00;101112.63;4943836;29;20094;-74
2022/04/15 04:19:31;;;;;;;39.05;30.45;;;;;;;10.97;99.75;101106.44;4950262;28;20043;-74
2022/04/15 04:21:56;;;;;;;43.97;32.58;;;;;;;10.96;99.83;101107.31;4952795;29;20043;-74
2022/04/15 04:24:22;;;;;;;33.75;27.33;;;;;;;10.96;99.29;101107.31;4956323;28;20051;-74
2022/04/15 04:26:47;;;;;;;38.58;28.55;;;;;;;11.00;99.33;101105.56;4943760;29;20032;-76
2022/04/15 04:29:13;;;;;;;34.35;28.98;;;;;;;11.01;99.18;101108.22;4956314;29;20130;-74
2022/04/15 04:31:38;;;;;;;40.78;30.25;;;;;;;10.99;98.60;101107.31;4938808;29;20033;-74
2022/04/15 04:34:03;;;;;;;38.25;32.03;;;;;;;10.96;98.85;101104.69;4956195;28;20066;-74
2022/04/15 04:36:29;;;;;;;38.40;29.08;;;;;;;10.96;98.55;101110.84;4956195;29;20042;-74
2022/04/15 04:38:54;;;;;;;33.40;24.00;;;;;;;10.95;98.07;101109.09;4956211;29;20023;-74
2022/04/15 04:41:19;;;;;;;36.08;26.05;;;;;;;10.91;97.72;101122.28;4938584;29;20045;-74
2022/04/15 04:43:46;;;;;;;31.13;23.25;;;;;;;10.91;97.49;101128.44;4956100;29;20031;-74
2022/04/15 04:46:11;;;;;;;30.08;22.75;;;;;;;10.85;97.39;101127.56;4953315;29;20083;-74
2022/04/15 04:48:37;;;;;;;30.23;22.08;;;;;;;10.86;96.35;101127.53;4953502;29;20042;-74
2022/04/15 04:51:02;;;;;;;25.65;20.00;;;;;;;10.81;96.47;101133.69;4953624;29;20106;-74
2022/04/15 04:53:28;;;;;;;27.98;20.25;;;;;;;10.82;95.78;101139.00;4951766;28;20034;-74
2022/04/15 04:55:53;;;;;;;26.17;18.30;;;;;;;10.72;94.76;101139.84;4951357;29;20039;-74
2022/04/15 04:58:18;;;;;;;21.15;17.45;;;;;;;10.76;94.74;101146.88;4953997;29;20075;-74
2022/04/15 05:00:43;;;;;;;20.73;16.95;;;;;;;10.78;94.25;101154.81;4955549;29;20118;-74
2022/04/15 05:03:10;;;;;;;20.55;16.42;;;;;;;10.73;94.03;101154.78;4955472;28;20035;-74
2022/04/15 05:05:35;;;;;;;18.52;15.98;;;;;;;10.72;94.28;101163.59;4938465;29;20050;-74
2022/04/15 05:08:00;;;;;;;18.00;14.80;;;;;;;10.68;93.29;101161.81;4955600;29;20133;-74
2022/04/15 05:10:25;;;;;;;20.25;15.05;;;;;;;10.52;93.21;101166.16;4948890;29;20052;-74
2022/04/15 05:12:51;;;;;;;22.40;15.50;;;;;;;10.51;92.40;101175.84;4955337;29;20039;-75
2022/04/15 05:15:19;;;;;;;19.02;14.70;;;;;;;10.58;91.59;101170.56;4953580;29;20457;-74
2022/04/15 05:17:44;;;;;;;14.48;11.23;;;;;;;10.47;91.03;101176.69;4937192;29;20041;-74
2022/04/15 05:20:09;;;;;;;13.13;11.30;;;;;;;10.46;91.19;101179.34;4951448;29;20031;-74
2022/04/15 05:22:35;;;;;;;13.48;9.93;;;;;;;10.44;90.34;101181.06;4953198;29;20058;-75
2022/04/15 05:25:00;;;;;;;14.73;10.88;;;;;;;10.22;90.32;101187.97;4953475;29;20051;-74
2022/04/15 05:27:26;;;;;;;13.82;9.98;;;;;;;10.23;90.26;101195.88;4953331;29;20050;-74
2022/04/15 05:29:51;;;;;;;13.73;10.27;;;;;;;10.20;90.88;101197.63;4936150;28;20027;-74
2022/04/15 05:32:18;;;;;;;11.57;9.43;;;;;;;10.26;90.64;101197.66;4951021;28;20490;-75
2022/04/15 05:34:44;;;;;;;14.07;10.02;;;;;;;10.27;91.06;101197.72;4935427;29;20055;-74
2022/04/15 05:37:10;;;;;;;11.95;9.98;;;;;;;10.15;90.93;101208.13;4953768;29;20482;-74
2022/04/15 05:39:35;;;;;;;14.18;10.38;;;;;;;10.04;91.92;101212.47;4955214;29;20046;-74
2022/04/15 05:42:01;;;;;;;16.35;10.88;;;;;;;9.98;92.17;101215.94;4954717;29;20039;-74
2022/04/15 05:44:26;;;;;;;16.00;10.75;;;;;;;9.99;91.80;101215.06;4954983;28;20129;-74
2022/04/15 05:46:51;;;;;;;14.18;8.80;;;;;;;9.74;92.05;101232.44;4954995;29;20054;-74
2022/04/15 05:49:18;;;;;;;12.23;8.80;;;;;;;9.59;92.84;101227.94;4954854;29;20054;-74
2022/04/15 05:51:45;;;;;;;13.52;8.85;;;;;;;9.60;92.75;101229.69;4954650;29;20454;-74
2022/04/15 05:54:11;;;;;;;14.80;10.70;;;;;;;9.64;93.14;101225.31;4952818;29;20082;-75
2022/04/15 05:56:37;;;;;;;12.20;9.00;;;;;;;9.60;91.20;101240.22;4952134;29;20090;-74
2022/04/15 05:59:03;;;;;;;11.25;7.97;;;;;;;9.70;90.57;101232.41;4954788;29;20043;-74
2022/04/15 06:01:28;;;;;;;11.63;7.72;;;;;;;9.75;89.48;101230.72;4954465;29;20490;-74
2022/04/15 06:03:53;;;;;;;11.82;8.68;;;;;;;9.76;88.61;101229.81;4954544;28;20122;-74
2022/04/15 06:06:19;;;;;;;10.43;7.18;;;;;;;9.76;86.88;101235.97;4954701;29;20139;-74
2022/04/15 06:08:44;;;;;;;11.02;6.75;;;;;;;9.76;85.78;101225.44;4954649;29;20066;-75
2022/04/15 06:11:09;;;;;;;10.50;5.97;;;;;;;9.75;84.43;101223.69;4954337;29;20024;-74
2022/04/15 06:13:35;;;;;;;7.65;4.95;;;;;;;9.71;83.02;101221.00;4954400;29;20082;-74
2022/04/15 06:16:00;;;;;;;8.50;4.88;;;;;;;9.73;83.25;101229.81;4954514;29;20039;-75
2022/04/15 06:18:29;;;;;;;7.53;5.03;;;;;;;9.66;83.18;101229.72;4954305;29;20137;-74
2022/04/15 06:20:55;;;;;;;9.15;5.05;;;;;;;9.70;83.49;101235.06;4945617;29;20043;-74
2022/04/15 06:23:20;;;;;;;7.97;4.68;;;;;;;9.51;83.60;101237.53;4954298;29;20429;-74
2022/04/15 06:25:46;;;;;;;7.57;5.15;;;;;;;9.41;83.90;101243.56;4954215;29;20066;-74
2022/04/15 06:28:12;;;;;;;8.50;5.13;;;;;;;9.39;84.80;101240.91;4954148;29;20126;-74
2022/04/15 06:30:38;;;;;;;8.30;5.82;;;;;;;9.42;85.06;101242.69;4954117;29;20034;-75
2022/04/15 06:33:08;;;;;;;10.50;5.53;;;;;;;9.52;84.35;101241.91;4953699;29;20505;-74
2022/04/15 06:35:34;;;;;;;7.47;5.05;;;;;;;9.51;85.67;101242.81;4945010;29;20035;-74
2022/04/15 06:38:00;;;;;;;7.72;4.28;;;;;;;9.49;84.23;101238.38;4954019;29;20043;-74
2022/04/15 06:40:25;;;;;;;9.43;5.43;;;;;;;9.64;85.77;101239.41;4953919;29;20086;-74
2022/04/15 06:42:50;;;;;;;7.07;4.63;;;;;;;9.80;84.83;101247.44;4953387;28;20490;-74
2022/04/15 06:45:16;;;;;;;7.70;4.63;;;;;;;10.13;81.28;101253.84;4953947;29;20039;-74
2022/04/15 06:47:41;;;;;;;8.25;4.25;;;;;;;10.06;79.94;101269.63;4953700;29;20375;-75
2022/04/15 06:50:07;;;;;;;7.45;4.05;;;;;;;10.26;80.98;101259.22;4936598;29;20039;-74
2022/04/15 06:52:33;;;;;;;6.60;4.22;;;;;;;10.34;78.36;101256.66;4952898;28;20023;-74
2022/04/15 06:54:58;;;;;;;6.90;4.30;;;;;;;10.33;77.80;101257.53;4953756;29;20486;-75
2022/04/15 06:57:23;;;;;;;6.40;4.25;;;;;;;10.53;78.28;101252.38;4953732;29;20087;-75
2022/04/15 06:59:49;;;;;;;5.70;3.95;;;;;;;10.68;76.93;101256.84;4950041;29;20098;-74
2022/04/15 07:02:14;;;;;;;7.05;4.50;;;;;;;10.55;76.03;101270.84;4953169;29;20173;-74
2022/04/15 07:04:40;;;;;;;7.55;4.85;;;;;;;10.56;77.30;101267.34;4953623;29;20043;-74
2022/04/15 07:07:05;;;;;;;7.82;4.70;;;;;;;10.68;77.62;101273.56;4953532;29;20046;-75
2022/04/15 07:09:30;;;;;;;6.00;4.20;;;;;;;10.71;77.18;101272.69;4952842;29;20118;-74
2022/04/15 07:11:56;;;;;;;7.70;4.22;;;;;;;10.65;76.96;101262.13;4953200;29;20288;-75
2022/04/15 07:14:21;;;;;;;6.25;4.28;;;;;;;10.61;76.91;101286.72;4953356;29;20079;-74
2022/04/15 07:16:47;;;;;;;8.95;4.75;;;;;;;10.65;77.00;101283.25;4969164;23;20043;-83
2022/04/15 07:19:12;;;;;;;10.18;5.15;;;;;;;10.55;76.00;101271.72;4967250;29;20502;-83
2022/04/15 07:21:39;;;;;;;7.90;4.88;;;;;;;10.57;75.79;101292.88;4967946;29;20422;-83
2022/04/15 07:24:05;;;;;;;9.00;5.00;;;;;;;10.47;74.85;101289.28;4965382;29;20118;-83
2022/04/15 07:26:31;;;;;;;12.13;6.47;;;;;;;10.48;75.72;101299.00;4948389;29;20277;-83
2022/04/15 07:28:56;;;;;;;10.93;5.57;;;;;;;10.37;75.68;101304.16;4967920;29;20114;-83
2022/04/15 07:31:22;;;;;;;7.47;4.97;;;;;;;10.36;75.54;101291.84;4967707;29;20071;-83
2022/04/15 07:33:48;;;;;;;8.68;4.85;;;;;;;10.41;75.24;101291.91;4950124;29;20038;-84
2022/04/15 07:38:57;;;;;;;7.70;5.00;;;;;;;10.43;74.21;101298.94;4965421;29;20098;-83
2022/04/15 07:41:23;;;;;;;6.68;4.07;;;;;;;10.38;73.93;101305.94;4966825;29;20581;-83
2022/04/15 07:43:48;;;;;;;6.82;4.28;;;;;;;10.24;74.53;101303.19;4950972;29;20047;-84
2022/04/15 07:46:14;;;;;;;6.78;3.97;;;;;;;10.26;73.76;101311.97;4967845;28;20045;-83
2022/04/15 07:48:40;;;;;;;4.97;3.50;;;;;;;10.10;74.17;101305.69;4959218;29;20035;-83
2022/04/15 07:51:05;;;;;;;5.35;3.72;;;;;;;10.07;73.21;101305.69;4966794;29;20036;-84
2022/04/15 07:53:30;;;;;;;6.30;2.88;;;;;;;10.11;73.10;101309.22;4967005;28;20053;-83
2022/04/15 07:55:55;;;;;;;5.95;2.80;;;;;;;10.10;71.82;101325.91;4970349;29;20042;-83
2022/04/15 07:58:21;;;;;;;4.88;2.70;;;;;;;10.09;72.31;101317.13;4962081;29;20043;-84
2022/04/15 08:00:46;;;;;;;5.25;2.95;;;;;;;9.95;73.16;101333.69;4954556;29;20078;-83
2022/04/15 08:03:11;;;;;;;4.25;2.60;;;;;;;10.16;72.59;101327.72;4971065;29;20091;-84
2022/04/15 08:05:37;;;;;;;4.10;2.42;;;;;;;10.13;71.41;101338.25;4970733;29;20418;-83
2022/04/15 08:08:02;;;;;;;3.55;2.03;;;;;;;10.33;71.17;101333.19;4970938;29;20035;-83
2022/04/15 08:10:28;;;;;;;4.20;2.22;;;;;;;10.34;70.41;101330.53;4971386;29;20069;-84
2022/04/15 08:12:54;;;;;;;5.03;2.30;;;;;;;10.58;70.64;101337.75;4963104;29;20038;-83
2022/04/15 08:15:20;;;;;;;5.10;2.47;;;;;;;10.43;70.13;101357.00;4953636;29;20050;-83
2022/04/15 08:17:46;;;;;;;4.63;2.45;;;;;;;10.41;70.67;101348.19;4961493;29;20039;-83
2022/04/15 08:20:11;;;;;;;3.95;2.42;;;;;;;10.40;71.42;101346.44;4967287;29;20091;-83
2022/04/15 08:22:37;;;;;;;5.70;2.50;;;;;;;10.29;71.19;101358.63;4970291;29;20031;-83
2022/04/15 08:25:04;;;;;;;5.13;2.33;;;;;;;10.24;71.76;101360.31;4969948;29;20078;-83
2022/04/15 08:27:29;;;;;;;4.22;2.33;;;;;;;10.33;72.16;101346.38;4970623;29;20114;-82
2022/04/15 08:29:54;;;;;;;5.25;2.53;;;;;;;10.44;71.53;101361.41;4970357;29;20062;-83
2022/04/15 08:32:20;;;;;;;4.28;2.42;;;;;;;10.43;70.69;101356.13;4951183;29;20152;-84
2022/04/15 08:34:46;;;;;;;5.43;2.80;;;;;;;10.34;71.04;101353.41;4970108;29;20050;-83
2022/04/15 08:37:13;;;;;;;4.00;2.70;;;;;;;10.40;70.27;101361.34;4952496;29;20493;-83
2022/04/15 08:39:38;;;;;;;4.05;2.40;;;;;;;10.45;70.54;101371.09;4953054;29;20027;-83
2022/04/15 08:42:07;;;;;;;5.75;2.75;;;;;;;10.38;70.08;101369.28;4952266;29;20036;-83
2022/04/15 08:44:32;;;;;;;5.60;2.60;;;;;;;10.56;70.13;101362.34;4952938;29;20469;-83
2022/04/15 08:47:00;;;;;;;7.63;3.03;;;;;;;10.63;69.83;101365.06;4969666;28;20035;-83
2022/04/15 08:49:25;;;;;;;5.28;3.13;;;;;;;10.69;68.96;101374.81;4970836;29;20038;-83
2022/04/15 08:51:51;;;;;;;5.07;3.28;;;;;;;10.70;68.80;101372.16;4952679;29;20046;-83
2022/04/15 08:54:18;;;;;;;6.30;3.42;;;;;;;10.58;70.13;101371.19;4969950;29;20042;-84
2022/04/15 08:56:43;;;;;;;5.15;3.15;;;;;;;10.65;69.23;101375.63;4969505;28;20058;-83
2022/04/15 08:59:09;;;;;;;6.55;4.00;;;;;;;10.69;69.58;101373.03;4969907;29;20494;-84
2022/04/15 09:01:34;;;;;;;5.47;3.58;;;;;;;10.65;69.97;101378.28;4969971;29;20035;-84
2022/04/15 09:04:00;;;;;;;5.25;3.17;;;;;;;10.50;70.04;101379.91;4936571;29;20097;-83
2022/04/15 09:06:35;;;;;;;4.65;3.38;;;;;;;10.47;70.13;101379.00;4969008;28;20031;-84
2022/04/15 09:09:11;;;;;;;5.35;2.75;;;;;;;10.60;69.93;101380.88;4965438;29;20039;-83
2022/04/15 09:11:38;;;;;;;6.05;3.38;;;;;;;10.66;70.63;101382.66;4935867;29;20050;-83
2022/04/15 09:14:10;;;;;;;4.78;3.22;;;;;;;10.78;70.36;101384.53;4969373;29;20046;-83
2022/04/15 09:16:43;;;;;;;4.40;3.03;;;;;;;10.74;68.38;101394.16;4944713;29;20047;-83
2022/04/15 09:19:10;;;;;;;6.10;3.55;;;;;;;10.64;69.47;101397.63;4951959;29;20054;-83
2022/04/15 09:21:36;;;;;;;5.43;4.00;;;;;;;10.27;70.50;101398.22;4968666;29;20050;-83
2022/04/15 09:24:02;;;;;;;7.07;4.13;;;;;;;10.48;70.53;101396.63;4968913;29;20038;-84
2022/04/15 09:26:27;;;;;;;4.47;3.08;;;;;;;10.56;70.07;101401.94;4961292;29;20035;-83
2022/04/15 09:28:53;;;;;;;6.25;3.35;;;;;;;10.62;69.79;101407.28;4969183;29;20039;-83
2022/04/15 09:31:20;;;;;;;4.95;3.65;;;;;;;10.58;70.09;101405.50;4968665;29;20078;-84
2022/04/15 09:33:57;;;;;;;5.22;3.22;;;;;;;10.51;69.71;101404.56;4951737;29;20118;-83
2022/04/15 09:36:30;;;;;;;6.07;3.38;;;;;;;10.50;69.38;101401.03;4951442;29;20047;-83
2022/04/15 09:38:58;;;;;;;4.93;3.40;;;;;;;10.48;71.10;101402.78;4968839;29;20043;-83
2022/04/15 09:41:25;;;;;;;4.65;3.30;;;;;;;10.39;70.15;101418.53;4968854;29;20095;-83
2022/04/15 09:43:52;;;;;;;5.40;3.72;;;;;;;10.38;71.42;101408.00;4964101;29;20399;-84
2022/04/15 09:46:18;;;;;;;5.22;3.35;;;;;;;10.38;71.16;101405.34;4951550;28;20399;-83
2022/04/15 09:49:09;;;;;;;5.13;3.55;;;;;;;10.43;72.02;101408.91;4950840;29;20039;-82
2022/04/15 09:51:45;;;;;;;5.55;3.53;;;;;;;10.78;71.17;101410.94;4966529;29;20043;-83
2022/04/15 09:54:20;;;;;;;6.13;4.05;;;;;;;11.09;69.39;101401.44;4965743;29;20058;-83
2022/04/15 09:56:47;;;;;;;5.57;3.35;;;;;;;11.03;67.43;101419.88;4968395;28;20129;-83
2022/04/15 09:59:15;;;;;;;4.88;3.53;;;;;;;11.29;67.70;101410.38;4968440;29;20051;-84
2022/04/15 10:01:45;;;;;;;6.60;3.53;;;;;;;11.28;67.69;101411.22;4951188;29;20137;-84
2022/04/15 10:04:12;;;;;;;4.88;3.05;;;;;;;11.38;68.20;101415.69;4952126;29;20050;-83
2022/04/15 10:06:39;;;;;;;5.60;3.65;;;;;;;11.45;66.92;101415.69;4944263;29;20066;-84
2022/04/15 10:09:06;;;;;;;5.28;4.00;;;;;;;11.48;67.27;101410.44;4968658;29;20023;-83
2022/04/15 10:11:32;;;;;;;6.20;4.18;;;;;;;11.66;67.74;101417.53;4968509;29;20032;-84
2022/04/15 10:13:58;;;;;;;6.07;4.03;;;;;;;11.43;67.82;101417.47;4950876;29;20027;-84
2022/04/15 10:16:24;;;;;;;4.90;3.50;;;;;;;11.28;67.63;101411.22;4967611;28;20046;-83
2022/04/15 10:18:50;;;;;;;4.53;3.55;;;;;;;11.21;68.75;101408.53;4967738;29;20031;-83
2022/04/15 10:21:16;;;;;;;7.18;5.15;;;;;;;11.10;69.27;101413.78;4967769;29;20039;-83
2022/04/15 10:23:42;;;;;;;5.63;4.03;;;;;;;11.12;69.78;101406.75;4968559;29;20027;-83
2022/04/15 10:26:08;;;;;;;6.05;4.20;;;;;;;11.05;69.59;101410.22;4959924;28;20031;-84
2022/04/15 10:28:42;;;;;;;6.13;4.50;;;;;;;10.87;70.15;101411.88;4950820;29;20047;-83
2022/04/15 10:31:11;;;;;;;7.55;4.70;;;;;;;10.86;69.74;101417.16;4934309;29;20067;-83
2022/04/15 10:33:41;;;;;;;6.22;4.65;;;;;;;10.94;70.12;101412.78;4968509;29;20067;-84
2022/04/15 10:36:10;;;;;;;7.13;4.20;;;;;;;11.36;68.25;101411.25;4967594;29;20039;-84
2022/04/15 10:38:35;;;;;;;7.07;4.20;;;;;;;11.59;67.95;101403.44;4967212;29;20039;-83
2022/04/15 10:41:15;;;;;;;5.53;4.07;;;;;;;11.92;65.70;101401.78;4949029;29;20042;-83
2022/04/15 10:43:55;;;;;;;6.10;4.10;;;;;;;12.04;64.18;101400.06;4953051;29;20043;-84
2022/04/15 10:46:31;;;;;;;8.48;3.72;;;;;;;12.13;65.17;101412.44;4946612;28;20141;-84
2022/04/15 10:48:58;;;;;;;5.55;4.15;;;;;;;12.00;65.24;101421.22;4957563;29;20046;-84
2022/04/15 10:51:27;;;;;;;4.97;3.15;;;;;;;11.77;65.69;101416.72;4951833;29;20035;-84
2022/04/15 10:53:53;;;;;;;4.45;3.50;;;;;;;11.50;67.28;101408.66;4969515;29;20054;-84
2022/04/15 10:56:20;;;;;;;5.28;3.78;;;;;;;11.60;67.70;101415.75;4961151;29;20103;-84
2022/04/15 11:01:57;;;;;;;7.18;4.18;;;;;;;11.12;67.64;101425.25;4968993;29;20035;-83
2022/04/15 11:04:26;;;;;;;6.13;4.10;;;;;;;11.12;68.63;101435.81;4965834;29;20039;-83
2022/04/15 11:06:54;;;;;;;6.60;4.85;;;;;;;11.12;69.49;101422.59;4969674;28;20035;-84
2022/04/15 11:09:23;;;;;;;5.47;4.18;;;;;;;11.10;69.49;101417.28;4965895;29;20070;-84
2022/04/15 11:11:53;;;;;;;6.63;4.68;;;;;;;11.21;68.11;101425.28;4951762;29;20043;-83
2022/04/15 11:14:31;;;;;;;6.80;4.40;;;;;;;11.23;68.70;101420.88;4940951;29;20035;-83
2022/04/15 11:16:59;;;;;;;6.70;4.43;;;;;;;11.18;68.51;101427.91;4949255;29;20117;-84